METAR Data
IDs: Format: Raw Decoded Include TAF

Data at: 0514 UTC 24 Sep 2018

K4O4 240455Z AUTO 00000KT 1 1/4SM OVC001 19/18 A2992 RMK AO2
K4O4 240435Z AUTO 00000KT 1 1/2SM OVC001 19/18 A2992 RMK AO2
K4O4 240415Z AUTO 00000KT 1 1/2SM OVC003 19/18 A2992 RMK AO2
K4O4 240355Z AUTO 00000KT 1 3/4SM OVC003 19/18 A2992 RMK AO2
K4O4 240335Z AUTO 00000KT 4SM OVC003 19/18 A2992 RMK AO2
K4O4 240315Z AUTO 00000KT 7SM OVC005 19/18 A2992 RMK AO2
K4O4 240255Z AUTO 00000KT 10SM OVC005 19/18 A2992 RMK AO2
K4O4 240235Z AUTO 07005KT 10SM OVC007 19/18 A2992 RMK AO2
K4O4 240215Z AUTO 00000KT 10SM OVC007 19/18 A2992 RMK AO2
K4O4 240155Z AUTO 00000KT 4SM OVC004 19/18 A2991 RMK AO2
K4O4 240135Z AUTO 09006KT 3SM OVC004 20/18 A2991 RMK AO2
K4O4 240115Z AUTO 00000KT 2 1/2SM OVC004 20/18 A2991 RMK AO2
K4O4 240055Z AUTO 00000KT 3SM OVC006 20/18 A2990 RMK AO2
K4O4 240035Z AUTO 00000KT 3SM OVC006 20/18 A2990 RMK AO2
K4O4 240015Z AUTO 09004KT 7SM OVC008 20/18 A2989 RMK AO2
K4O4 232355Z AUTO 09003KT 10SM OVC010 21/18 A2989 RMK AO2
K4O4 232335Z AUTO 09005KT 10SM OVC010 21/18 A2989 RMK AO2
K4O4 232315Z AUTO 08004KT 10SM OVC012 21/18 A2989 RMK AO2
K4O4 232255Z AUTO 00000KT 10SM OVC012 21/18 A2989 RMK AO2
K4O4 232235Z AUTO 00000KT 10SM OVC012 21/18 A2989 RMK AO2
K4O4 232215Z AUTO 08003KT 10SM BKN009 OVC014 21/18 A2989 RMK AO2
K4O4 232155Z AUTO 08008KT 10SM OVC009 21/18 A2989 RMK AO2
K4O4 232135Z AUTO 08005KT 10SM OVC009 21/18 A2990 RMK AO2
K4O4 232115Z AUTO 08006KT 10SM OVC009 21/19 A2990 RMK AO2
K4O4 232055Z AUTO 09003KT 10SM OVC009 21/18 A2990 RMK AO2
K4O4 232035Z AUTO 00000KT 10SM OVC009 21/18 A2991 RMK AO2
K4O4 232015Z AUTO 00000KT 10SM OVC009 22/19 A2991 RMK AO2
K4O4 231955Z AUTO 00000KT 10SM OVC007 21/18 A2992 RMK AO2
K4O4 231935Z AUTO 00000KT 10SM OVC007 21/18 A2992 RMK AO2
K4O4 231915Z AUTO 08005KT 10SM OVC007 21/18 A2994 RMK AO2
K4O4 231855Z AUTO 00000KT 10SM OVC005 21/18 A2994 RMK AO2
K4O4 231835Z AUTO 06005KT 10SM OVC005 20/18 A2995 RMK AO2
K4O4 231815Z AUTO 00000KT 10SM OVC005 20/18 A2996 RMK AO2
K4O4 231755Z AUTO 09004KT 10SM OVC005 20/19 A2995 RMK AO2
K4O4 231735Z AUTO 00000KT 10SM OVC003 20/19 A2996 RMK AO2
K4O4 231715Z AUTO 00000KT 10SM OVC003 19/18 A2997 RMK AO2
K4O4 231655Z AUTO 08006KT 10SM OVC003 19/18 A2997 RMK AO2
K4O4 231635Z AUTO 00000KT 10SM OVC003 18/18 A2997 RMK AO2
K4O4 231615Z AUTO 00000KT 7SM OVC003 18/18 A2997 RMK AO2
K4O4 231555Z AUTO 07007KT 4SM OVC003 18/17 A2997 RMK AO2
K4O4 231535Z AUTO 00000KT 3SM OVC003 18/17 A2998 RMK AO2
K4O4 231520Z AUTO 08007KT 3SM OVC003 18/17 A2997 RMK AO2
K4O4 231455Z AUTO 07004KT 4SM OVC003 18/17 A2997 RMK AO2
K4O4 231435Z AUTO 08007KT 7SM OVC005 17/17 A2996 RMK AO2
K4O4 231415Z AUTO 00000KT 10SM OVC005 17/17 A2996 RMK AO2
K4O4 231355Z AUTO 00000KT 10SM OVC005 17/17 A2995 RMK AO2
K4O4 231335Z AUTO 09005KT 10SM OVC005 17/17 A2995 RMK AO2
K4O4 231315Z AUTO 00000KT 10SM OVC005 17/17 A2994 RMK AO2
K4O4 231255Z AUTO 00000KT 10SM OVC005 17/16 A2994 RMK AO2
K4O4 231235Z AUTO 08007KT 10SM OVC005 17/16 A2994 RMK AO2
K4O4 231215Z AUTO 08007G15KT 10SM OVC005 17/16 A2993 RMK AO2
K4O4 231155Z AUTO 00000KT 10SM OVC005 17/16 A2993 RMK AO2
K4O4 231135Z AUTO 09007KT 10SM OVC005 17/16 A2993 RMK AO2
K4O4 231115Z AUTO 08009G14KT 10SM OVC005 17/16 A2993 RMK AO2
K4O4 231055Z AUTO 08009KT 7SM OVC005 17/16 A2993 RMK AO2 P0018
K4O4 231035Z AUTO 07007KT 5SM OVC005 17/16 A2993 RMK AO2 P0014
K4O4 231015Z AUTO 09006KT 5SM OVC005 17/16 A2993 RMK AO2 P0007
K4O4 230955Z AUTO 08011G15KT 1 1/2SM OVC007 17/16 A2992 RMK AO2 P0046
K4O4 230935Z AUTO 08008KT 4SM BKN007 OVC012 17/16 A2993 RMK AO2 P0018
K4O4 230915Z AUTO 07007KT 4SM OVC007 17/16 A2994 RMK AO2 P0007
K4O4 230855Z AUTO 08008KT 7SM OVC007 17/16 A2994 RMK AO2 P0016
K4O4 230835Z AUTO 07011G15KT 7SM OVC007 17/16 A2994 RMK AO2 P0012
K4O4 230815Z AUTO 07011G19KT 5SM SCT005 OVC009 17/16 A2994 RMK AO2 P0005
K4O4 230755Z AUTO 07009G14KT 7SM OVC007 17/16 A2996 RMK AO2 P0015
K4O4 230735Z AUTO 07010G16KT 7SM BKN006 OVC010 17/16 A2996 RMK AO2 P0010
K4O4 230715Z AUTO 07003KT 5SM OVC004 17/16 A2997 RMK AO2 P0006
K4O4 230655Z AUTO 00000KT 5SM OVC004 17/16 A2997 RMK AO2 P0008
K4O4 230635Z AUTO 00000KT 5SM OVC004 17/16 A2998 RMK AO2 P0006
K4O4 230615Z AUTO 07009KT 4SM OVC006 17/16 A2997 RMK AO2 P0003
K4O4 230555Z AUTO 06011G16KT 5SM OVC006 17/16 A2997 RMK AO2
K4O4 230535Z AUTO 07009G17KT 10SM OVC004 17/16 A2998 RMK AO2
K4O4 230515Z AUTO 07004G08KT 10SM OVC004 17/16 A2999 RMK AO2
K4O4 230455Z AUTO 07009KT 10SM OVC006 17/16 A2998 RMK AO2
K4O4 230435Z AUTO 06009KT 10SM OVC006 17/16 A2998 RMK AO2
K4O4 230415Z AUTO 07012KT 10SM OVC006 17/16 A2998 RMK AO2
K4O4 230355Z AUTO 00000KT 10SM OVC006 17/16 A2999 RMK AO2 P0002
K4O4 230335Z AUTO 07005KT 10SM OVC006 17/16 A2998 RMK AO2
K4O4 230315Z AUTO 07007G16KT 10SM OVC006 17/16 A2998 RMK AO2
K4O4 230255Z AUTO 07011G16KT 10SM OVC006 17/16 A2997 RMK AO2 P0004
K4O4 230235Z AUTO 08005KT 10SM OVC006 17/16 A2998 RMK AO2 P0004
K4O4 230215Z AUTO 08010KT 7SM OVC006 17/16 A2998 RMK AO2 P0002
K4O4 230155Z AUTO 08010G14KT 7SM OVC008 17/16 A2998 RMK AO2 P0012
K4O4 230135Z AUTO 09008KT 4SM OVC008 17/17 A2998 RMK AO2 P0008
K4O4 230115Z AUTO 08008KT 7SM OVC008 17/17 A2998 RMK AO2 P0002
K4O4 230055Z AUTO 08009KT 7SM SCT008 OVC011 17/17 A2998 RMK AO2 P0004
K4O4 230035Z AUTO 08007KT 7SM BKN008 OVC011 17/17 A2997 RMK AO2 P0002
K4O4 230015Z AUTO 07008G15KT 10SM OVC008 18/17 A2997 RMK AO2
K4O4 222355Z AUTO 08009KT 10SM OVC008 18/17 A2997 RMK AO2 P0005
K4O4 222335Z AUTO 08010G15KT 10SM OVC008 18/17 A2997 RMK AO2 P0004
K4O4 222315Z AUTO 07009KT 7SM BKN007 OVC012 18/17 A2997 RMK AO2 P0002
K4O4 222255Z AUTO 07010G14KT 7SM OVC009 18/17 A2996 RMK AO2 P0003
K4O4 222235Z AUTO 08008G15KT 10SM OVC009 18/17 A2997 RMK AO2 P0001
K4O4 222215Z AUTO 07011G14KT 10SM OVC007 18/17 A2996 RMK AO2
K4O4 222155Z AUTO 06006KT 10SM OVC005 18/18 A2996 RMK AO2
K4O4 222135Z AUTO 07007KT 10SM OVC009 18/17 A2996 RMK AO2
K4O4 222115Z AUTO 08005KT 10SM OVC009 18/17 A2996 RMK AO2
K4O4 222055Z AUTO 08012KT 10SM OVC009 18/18 A2997 RMK AO2
K4O4 222035Z AUTO 08008G18KT 10SM OVC009 18/18 A2996 RMK AO2
K4O4 222015Z AUTO 07013G17KT 10SM OVC007 18/18 A2997 RMK AO2
K4O4 221955Z AUTO 07014G21KT 10SM OVC007 19/18 A2997 RMK AO2
K4O4 221935Z AUTO 08007G14KT 10SM OVC007 19/18 A2998 RMK AO2
K4O4 221915Z AUTO 07011G20KT 10SM OVC007 18/18 A2998 RMK AO2
K4O4 221855Z AUTO 07012G17KT 10SM BKN007 OVC011 19/18 A2999 RMK AO2
K4O4 221835Z AUTO 08013G18KT 10SM OVC009 19/18 A2999 RMK AO2
K4O4 221815Z AUTO 08012G20KT 10SM OVC007 19/18 A3000 RMK AO2
K4O4 221755Z AUTO 08015G21KT 10SM OVC007 18/18 A3001 RMK AO2 P0002
K4O4 221740Z AUTO 08012G18KT 10SM OVC007 19/18 A3001 RMK AO2 P0002
K4O4 221715Z AUTO 08010KT 7SM OVC009 19/18 A3001 RMK AO2 P0001